Deming Municipal Airport Deming US
ICAO: KDMN
IATA: DMN
Category: Medium
Scheduled Services: No

Elevation: 4314 ft
TransAlt. 18000 ft.

Airport Communications:
ASOS:118.525
ALBUQUERQUE CNTR:128.2
ALBUQUERQUE RDO:122.2
CTAF/UNICOM:122.8

KDMN Zoom In..

If Map Doesn't Load, Click Here

Runways:

(A) RW 04 length 5675 ft width 60 ft
---- / hdg 42

(B) RW 08 length 8018 ft width 75 ft
---- / hdg 80

(C) RW 22 length 5675 ft width 60 ft
---- / hdg 222

(D) RW 26 length 8018 ft width 75 ft
---- / hdg 260

Location; KDMN
Day. 23 / Time. 08.53 Zulu
* Altimeter: 30.16
* Temperature: 14° c. 57.2°f.
* Wind from: 350° Speed 04 kn.
Dewpoint: 11° c.
Visibility: 10 Statute Miles.
Clouds: Clear (automated report).

KDMN 230853Z AUTO 35004KT 10SM CLR 14/11 A3016 RMK AO2 SLP151 T01440111 58004


Wind From 350°
Speed 04 kn.

 
 
jpsmedia.com for Web Design worldairports.se 2018   terms of use